createdAt,value
2022-12-27T00:01:55.068Z,70.68
2022-12-27T00:04:25.513Z,71.44
2022-12-27T00:06:54.011Z,71.16
2022-12-27T00:09:22.376Z,70.97
2022-12-27T00:11:54.809Z,70.29
2022-12-27T00:14:27.044Z,71.37
2022-12-27T00:16:57.271Z,71.10
2022-12-27T00:19:25.840Z,71.02
2022-12-27T00:21:54.055Z,70.76
2022-12-27T00:24:22.720Z,71.14
2022-12-27T00:26:51.304Z,71.00
2022-12-27T00:29:20.065Z,70.22
2022-12-27T00:31:48.419Z,70.33
2022-12-27T00:34:18.165Z,70.27
2022-12-27T00:36:46.451Z,69.50
2022-12-27T00:39:15.320Z,69.72
2022-12-27T00:41:43.739Z,69.32
2022-12-27T00:44:11.978Z,69.50
2022-12-27T00:46:40.217Z,69.78
2022-12-27T00:49:08.691Z,69.12
2022-12-27T00:51:38.842Z,68.61
2022-12-27T00:54:07.748Z,68.68
2022-12-27T00:56:35.910Z,68.71
2022-12-27T00:59:06.243Z,68.74
2022-12-27T01:01:37.091Z,68.92
2022-12-27T01:04:06.824Z,68.33
2022-12-27T01:06:36.161Z,67.57
2022-12-27T01:09:06.812Z,68.87
2022-12-27T01:11:35.487Z,68.81
2022-12-27T01:14:06.594Z,69.05
2022-12-27T01:16:35.697Z,68.54
2022-12-27T01:19:04.059Z,69.26
2022-12-27T01:21:32.314Z,68.56
2022-12-27T01:24:00.963Z,68.33
2022-12-27T01:26:31.496Z,68.39
2022-12-27T01:29:00.254Z,69.21
2022-12-27T01:31:29.968Z,68.62
2022-12-27T01:34:00.724Z,68.82
2022-12-27T01:36:31.732Z,68.04
2022-12-27T01:39:01.216Z,67.91
2022-12-27T01:41:51.325Z,68.12
2022-12-27T01:44:51.312Z,68.13
2022-12-27T01:47:26.530Z,68.12
2022-12-27T01:50:02.573Z,68.73
2022-12-27T01:52:35.404Z,68.56
2022-12-27T01:55:10.281Z,68.83
2022-12-27T01:57:40.842Z,68.87
2022-12-27T02:00:10.832Z,67.98
2022-12-27T02:02:40.386Z,68.78
2022-12-27T02:05:11.646Z,68.54
2022-12-27T02:07:48.905Z,68.44
2022-12-27T02:10:18.190Z,69.62
2022-12-27T02:12:48.483Z,69.45
2022-12-27T02:15:16.999Z,69.43
2022-12-27T02:17:45.254Z,69.71
2022-12-27T02:20:17.355Z,69.12
2022-12-27T02:23:44.457Z,68.61
2022-12-27T02:26:35.191Z,68.78
2022-12-27T02:29:33.055Z,69.14
2022-12-27T02:32:07.589Z,68.58
2022-12-27T02:34:44.232Z,68.79
2022-12-27T02:37:14.966Z,68.00
2022-12-27T02:39:48.023Z,68.40
2022-12-27T02:42:34.779Z,67.82
2022-12-27T02:45:25.876Z,68.73
2022-12-27T02:48:12.179Z,67.92
2022-12-27T02:51:19.462Z,68.29
2022-12-27T02:54:01.468Z,67.19
2022-12-27T02:56:57.014Z,67.07
2022-12-27T03:03:24.115Z,67.36
2022-12-27T03:06:36.771Z,64.76
2022-12-27T03:09:34.934Z,66.07
2022-12-27T03:12:26.211Z,65.56
2022-12-27T03:15:18.627Z,66.28
2022-12-27T03:17:53.213Z,66.68
2022-12-27T03:20:41.988Z,65.58
2022-12-27T03:23:29.503Z,66.18
2022-12-27T03:25:59.823Z,67.40
2022-12-27T03:28:48.176Z,68.29
2022-12-27T03:31:47.978Z,67.67
2022-12-27T03:34:33.284Z,68.34
2022-12-27T03:37:24.313Z,66.61
2022-12-27T03:40:03.117Z,66.89
2022-12-27T03:42:54.978Z,66.90
2022-12-27T03:45:43.778Z,66.85
2022-12-27T03:48:18.145Z,67.43
2022-12-27T03:50:50.967Z,67.97
2022-12-27T03:53:27.764Z,67.41
2022-12-27T03:55:56.325Z,66.73
2022-12-27T03:58:25.144Z,67.70
2022-12-27T04:00:54.145Z,67.29
2022-12-27T04:03:22.513Z,68.31
2022-12-27T04:05:51.217Z,67.98
2022-12-27T04:08:38.755Z,68.27
2022-12-27T04:11:24.507Z,68.61
2022-12-27T04:14:10.283Z,68.26
2022-12-27T04:16:56.115Z,69.55
2022-12-27T04:19:41.926Z,69.36
2022-12-27T04:22:27.775Z,68.88
2022-12-27T04:25:14.770Z,69.20
2022-12-27T04:28:00.936Z,68.61
2022-12-27T04:30:47.327Z,69.52
2022-12-27T04:33:33.684Z,68.79
2022-12-27T04:36:06.132Z,69.13
2022-12-27T04:38:35.205Z,68.73
2022-12-27T04:41:22.210Z,68.45
2022-12-27T04:44:07.803Z,68.29
2022-12-27T04:46:54.409Z,68.28
2022-12-27T04:49:44.395Z,67.42
2022-12-27T04:52:33.446Z,68.06
2022-12-27T04:55:13.319Z,67.92
2022-12-27T04:57:43.339Z,67.86
2022-12-27T05:00:30.273Z,67.82
2022-12-27T05:02:59.686Z,67.66
2022-12-27T05:05:28.256Z,67.25
2022-12-27T05:08:16.229Z,68.30
2022-12-27T05:11:02.035Z,67.81
2022-12-27T05:13:49.931Z,67.81
2022-12-27T05:16:18.489Z,66.76
2022-12-27T05:18:46.943Z,67.13
2022-12-27T05:21:15.158Z,67.37
2022-12-27T05:24:05.339Z,67.17
2022-12-27T05:26:34.830Z,66.84
2022-12-27T05:29:04.299Z,66.43
2022-12-27T05:31:33.338Z,66.00
2022-12-27T05:34:02.768Z,66.19
2022-12-27T05:36:30.994Z,65.59
2022-12-27T05:38:59.938Z,66.66
2022-12-27T05:41:28.386Z,66.47
2022-12-27T05:43:57.976Z,66.88
2022-12-27T05:46:29.901Z,67.06
2022-12-27T05:48:58.470Z,66.04
2022-12-27T05:51:27.295Z,66.33
2022-12-27T05:53:55.881Z,66.77
2022-12-27T05:56:24.131Z,66.93
2022-12-27T05:58:54.292Z,66.28
2022-12-27T06:01:22.985Z,66.30
2022-12-27T06:03:52.551Z,65.04
2022-12-27T06:06:20.875Z,65.10
2022-12-27T06:08:49.810Z,65.58
2022-12-27T06:11:20.165Z,65.22
2022-12-27T06:13:52.046Z,64.92
2022-12-27T06:16:21.812Z,64.51
2022-12-27T06:18:50.626Z,63.74
2022-12-27T06:21:22.672Z,63.54
2022-12-27T06:23:51.758Z,63.95
2022-12-27T06:26:23.100Z,63.68
2022-12-27T06:28:52.709Z,63.69
2022-12-27T06:31:22.098Z,63.44
2022-12-27T06:33:52.396Z,62.88
2022-12-27T06:36:23.897Z,63.19
2022-12-27T06:38:51.986Z,63.02
2022-12-27T06:41:21.243Z,63.28
2022-12-27T06:43:54.866Z,63.78
2022-12-27T06:46:24.445Z,63.76
2022-12-27T06:48:53.658Z,62.86
2022-12-27T06:51:23.595Z,62.98
2022-12-27T06:53:52.613Z,63.41
2022-12-27T06:56:23.036Z,63.47
2022-12-27T06:58:52.725Z,64.25
2022-12-27T07:01:23.502Z,63.22
2022-12-27T07:03:53.457Z,64.14
2022-12-27T07:06:25.124Z,63.86
2022-12-27T07:08:54.112Z,63.25
2022-12-27T07:11:23.385Z,63.72
2022-12-27T07:13:55.710Z,63.09
2022-12-27T07:16:25.955Z,63.17
2022-12-27T07:18:56.513Z,64.23
2022-12-27T07:21:28.409Z,63.39
2022-12-27T07:23:57.200Z,63.69
2022-12-27T07:26:28.677Z,63.88
2022-12-27T07:28:58.622Z,62.80
2022-12-27T07:31:29.859Z,61.78
2022-12-27T07:33:59.392Z,60.96
2022-12-27T07:36:33.187Z,61.82
2022-12-27T07:39:01.598Z,60.76
2022-12-27T07:41:29.779Z,60.76
2022-12-27T07:44:01.947Z,61.09
2022-12-27T07:46:30.958Z,61.27
2022-12-27T07:49:00.194Z,60.47
2022-12-27T07:51:30.268Z,58.89
2022-12-27T07:53:58.487Z,55.31
2022-12-27T07:56:28.880Z,54.86
2022-12-27T07:58:59.249Z,51.61
2022-12-27T08:01:30.299Z,50.68
2022-12-27T08:03:59.190Z,51.54
2022-12-27T08:06:33.046Z,54.59
2022-12-27T08:09:04.344Z,58.57
2022-12-27T08:11:32.637Z,60.16
2022-12-27T08:14:00.972Z,59.30
2022-12-27T08:16:29.737Z,59.59
2022-12-27T08:18:59.868Z,60.42
2022-12-27T08:21:33.735Z,60.58
2022-12-27T08:24:02.777Z,60.70
2022-12-27T08:26:31.043Z,59.65
2022-12-27T08:28:59.580Z,60.10
2022-12-27T08:31:27.948Z,59.72
2022-12-27T08:33:58.807Z,59.25
2022-12-27T08:36:54.007Z,59.07
2022-12-27T08:39:18.328Z,59.71
2022-12-27T08:41:47.882Z,59.43
2022-12-27T08:44:16.582Z,59.33
2022-12-27T08:46:44.784Z,59.60
2022-12-27T08:49:19.331Z,59.78
2022-12-27T08:51:47.657Z,60.52
2022-12-27T08:54:17.268Z,60.49
2022-12-27T08:56:45.751Z,61.27
2022-12-27T08:59:14.052Z,61.70
2022-12-27T09:01:42.908Z,62.01
2022-12-27T09:04:11.340Z,62.72
2022-12-27T09:06:42.263Z,62.99
2022-12-27T09:09:10.747Z,62.22
2022-12-27T09:11:40.666Z,61.81
2022-12-27T09:14:10.822Z,62.06
2022-12-27T09:16:39.978Z,61.17
2022-12-27T09:19:08.733Z,60.43
2022-12-27T09:21:36.999Z,61.26
2022-12-27T09:24:06.042Z,60.74
2022-12-27T09:26:34.686Z,60.81
2022-12-27T09:29:05.515Z,59.73
2022-12-27T09:31:34.711Z,59.90
2022-12-27T09:34:03.334Z,59.01
2022-12-27T09:36:32.047Z,59.59
2022-12-27T09:39:01.515Z,60.42
2022-12-27T09:42:34.180Z,59.62
2022-12-27T09:44:39.871Z,59.66
2022-12-27T09:47:14.009Z,59.07
2022-12-27T09:49:46.261Z,58.90
2022-12-27T09:52:18.988Z,59.73
2022-12-27T09:55:04.446Z,60.02
2022-12-27T09:57:38.819Z,60.59
2022-12-27T10:00:16.528Z,60.83
2022-12-27T10:02:46.079Z,61.34
2022-12-27T10:05:22.624Z,61.46
2022-12-27T10:08:04.754Z,60.64
2022-12-27T10:10:43.128Z,60.71
2022-12-27T10:13:33.387Z,59.42
2022-12-27T10:16:18.290Z,58.81
2022-12-27T10:19:04.255Z,58.45
2022-12-27T10:21:38.767Z,59.12
2022-12-27T10:24:20.412Z,59.43
2022-12-27T10:26:48.935Z,60.29
2022-12-27T10:29:22.451Z,60.37
2022-12-27T10:31:52.630Z,60.00
2022-12-27T10:34:24.702Z,60.14
2022-12-27T10:36:54.463Z,59.56
2022-12-27T10:39:28.413Z,59.07
2022-12-27T10:42:03.468Z,59.39
2022-12-27T10:44:32.065Z,60.34
2022-12-27T10:47:02.248Z,60.07
2022-12-27T10:49:32.747Z,60.42
2022-12-27T10:52:10.113Z,59.77
2022-12-27T10:54:52.357Z,60.13
2022-12-27T10:57:28.047Z,59.76
2022-12-27T11:00:18.990Z,60.25
2022-12-27T11:02:53.243Z,59.47
2022-12-27T11:05:23.592Z,59.55
2022-12-27T11:07:52.915Z,59.69
2022-12-27T11:10:23.957Z,58.73
2022-12-27T11:13:00.277Z,59.50
2022-12-27T11:15:30.228Z,59.74
2022-12-27T11:18:03.290Z,59.15
2022-12-27T11:20:35.469Z,59.74
2022-12-27T11:23:07.276Z,60.04
2022-12-27T11:25:37.807Z,59.69
2022-12-27T11:28:09.069Z,59.63
2022-12-27T11:30:40.563Z,59.46
2022-12-27T11:33:25.060Z,59.51
2022-12-27T11:35:57.082Z,60.16
2022-12-27T11:38:27.527Z,60.06
2022-12-27T11:41:03.505Z,59.77
2022-12-27T11:43:36.980Z,58.89
2022-12-27T11:46:13.195Z,58.88
2022-12-27T11:48:46.781Z,59.56
2022-12-27T11:51:41.789Z,59.41
2022-12-27T11:54:27.405Z,59.77
2022-12-27T11:57:12.509Z,59.16
2022-12-27T11:59:55.853Z,59.41
2022-12-27T12:02:41.056Z,59.30
2022-12-27T12:05:44.181Z,58.47
2022-12-27T12:08:28.207Z,58.07
2022-12-27T12:11:12.013Z,58.32
2022-12-27T12:14:13.011Z,58.83
2022-12-27T12:16:57.502Z,58.29
2022-12-27T12:19:43.058Z,58.78
2022-12-27T12:22:29.406Z,58.51
2022-12-27T12:25:29.067Z,58.75
2022-12-27T12:28:56.267Z,59.10
2022-12-27T12:31:29.759Z,59.10
2022-12-27T12:34:15.889Z,58.84
2022-12-27T12:37:15.734Z,59.51
2022-12-27T12:40:05.422Z,59.05
2022-12-27T12:42:42.240Z,59.58
2022-12-27T12:45:38.042Z,59.05
2022-12-27T12:48:25.724Z,58.85
2022-12-27T12:51:15.114Z,59.44
2022-12-27T12:53:55.974Z,59.47
2022-12-27T12:56:45.772Z,59.56
2022-12-27T12:59:36.938Z,59.64
2022-12-27T13:02:26.899Z,58.82
2022-12-27T13:05:16.973Z,58.58
2022-12-27T13:07:57.925Z,59.44
2022-12-27T13:10:53.084Z,59.50
2022-12-27T13:13:33.034Z,59.35
2022-12-27T13:16:13.871Z,59.16
2022-12-27T13:18:50.229Z,59.93
2022-12-27T13:21:31.636Z,59.72
2022-12-27T13:24:08.658Z,59.93
2022-12-27T13:26:49.915Z,59.50
2022-12-27T13:30:06.046Z,59.01
2022-12-27T13:32:49.667Z,59.37
2022-12-27T13:35:31.870Z,59.98
2022-12-27T13:38:16.182Z,60.02
2022-12-27T13:41:04.565Z,59.85
2022-12-27T13:43:53.054Z,60.07
2022-12-27T13:46:44.728Z,59.86
2022-12-27T13:49:31.622Z,59.98
2022-12-27T13:52:13.301Z,59.82
2022-12-27T13:55:07.018Z,60.18
2022-12-27T13:58:04.354Z,59.53
2022-12-27T14:00:38.445Z,59.88
2022-12-27T14:03:36.859Z,60.11
2022-12-27T14:06:40.160Z,59.31
2022-12-27T14:09:42.035Z,59.03
2022-12-27T14:12:41.858Z,59.10
2022-12-27T14:15:16.572Z,59.23
2022-12-27T14:17:54.971Z,59.52
2022-12-27T14:20:41.633Z,59.12
2022-12-27T14:23:27.339Z,59.59
2022-12-27T14:26:26.146Z,59.25
2022-12-27T14:29:29.441Z,59.10
2022-12-27T14:32:34.079Z,58.86
2022-12-27T14:35:50.613Z,58.75
2022-12-27T14:38:43.661Z,59.42
2022-12-27T14:41:47.682Z,59.13
2022-12-27T14:44:53.081Z,58.88
2022-12-27T14:47:50.480Z,59.64
2022-12-27T14:50:48.382Z,59.76
2022-12-27T14:53:43.860Z,59.51
2022-12-27T14:56:26.520Z,59.41
2022-12-27T14:59:07.322Z,59.73
2022-12-27T15:01:55.153Z,60.23
2022-12-27T15:04:51.928Z,59.60
2022-12-27T15:07:38.995Z,59.96
2022-12-27T15:10:16.828Z,60.34
2022-12-27T15:12:53.276Z,59.81
2022-12-27T15:15:31.071Z,59.56
2022-12-27T15:21:05.980Z,59.04
2022-12-27T15:23:43.856Z,58.77
2022-12-27T15:26:22.676Z,58.83
2022-12-27T15:29:06.504Z,58.30
2022-12-27T15:31:47.819Z,58.20
2022-12-27T15:34:38.403Z,57.52
2022-12-27T15:37:07.276Z,58.27
2022-12-27T15:40:02.212Z,57.49
2022-12-27T15:42:51.080Z,58.60
2022-12-27T15:45:34.672Z,59.10
2022-12-27T15:48:34.578Z,58.30
2022-12-27T15:51:12.607Z,59.18
2022-12-27T15:53:57.435Z,58.47
2022-12-27T15:56:57.062Z,59.08
2022-12-27T15:59:36.984Z,58.14
2022-12-27T16:02:29.336Z,59.46
2022-12-27T16:05:02.501Z,59.21
2022-12-27T16:07:47.584Z,58.69
2022-12-27T16:10:52.550Z,59.82
2022-12-27T16:13:49.994Z,58.89
2022-12-27T16:16:55.057Z,59.01
2022-12-27T16:19:40.717Z,58.95
2022-12-27T16:22:24.678Z,59.43
2022-12-27T16:24:56.209Z,59.95
2022-12-27T16:27:31.743Z,59.88
2022-12-27T16:30:01.892Z,60.84
2022-12-27T16:32:30.247Z,60.70
2022-12-27T16:35:15.137Z,60.19
2022-12-27T16:37:46.800Z,59.70
2022-12-27T16:40:38.065Z,59.10
2022-12-27T16:43:46.832Z,58.81
2022-12-27T16:46:39.042Z,59.90
2022-12-27T16:49:40.252Z,60.49
2022-12-27T16:52:27.309Z,59.93
2022-12-27T16:55:03.955Z,60.26
2022-12-27T16:57:40.393Z,60.35
2022-12-27T17:00:36.637Z,60.98
2022-12-27T17:03:32.702Z,60.15
2022-12-27T17:06:34.063Z,60.74
2022-12-27T17:09:31.150Z,60.90
2022-12-27T17:12:20.860Z,61.12
2022-12-27T17:14:54.923Z,60.85
2022-12-27T17:17:24.656Z,61.22
2022-12-27T17:20:03.181Z,61.14
2022-12-27T17:22:35.307Z,61.61
2022-12-27T17:25:05.453Z,62.08
2022-12-27T17:27:52.821Z,61.72
2022-12-27T17:30:22.745Z,61.43
2022-12-27T17:33:06.471Z,61.03
2022-12-27T17:35:52.879Z,60.51
2022-12-27T17:38:31.731Z,61.41
2022-12-27T17:41:15.455Z,61.12
2022-12-27T17:47:03.394Z,61.38
2022-12-27T17:49:33.284Z,61.75
2022-12-27T17:52:20.659Z,61.36
2022-12-27T17:55:06.992Z,61.11
2022-12-27T17:57:52.733Z,61.46
2022-12-27T18:00:24.050Z,61.41
2022-12-27T18:02:55.021Z,60.49
2022-12-27T18:05:29.393Z,61.17
2022-12-27T18:08:22.168Z,60.72
2022-12-27T18:10:51.209Z,61.25
2022-12-27T18:13:24.433Z,61.11
2022-12-27T18:15:53.620Z,60.19
2022-12-27T18:18:27.943Z,60.47
2022-12-27T18:20:58.257Z,61.32
2022-12-27T18:23:28.138Z,60.21
2022-12-27T18:26:03.080Z,60.33
2022-12-27T18:28:34.331Z,61.40
2022-12-27T18:31:09.800Z,61.74
2022-12-27T18:33:43.385Z,61.23
2022-12-27T18:36:20.852Z,61.80
2022-12-27T18:38:56.840Z,62.22
2022-12-27T18:41:25.846Z,62.54
2022-12-27T18:44:01.018Z,61.76
2022-12-27T18:46:32.603Z,62.44
2022-12-27T18:49:02.067Z,62.08
2022-12-27T18:51:33.321Z,63.45
2022-12-27T18:54:03.382Z,61.26
2022-12-27T18:56:35.201Z,62.44
2022-12-27T18:59:07.617Z,62.69
2022-12-27T19:01:41.956Z,62.55
2022-12-27T19:04:29.070Z,63.29
2022-12-27T19:07:06.651Z,63.09
2022-12-27T19:09:40.367Z,62.67
2022-12-27T19:12:18.559Z,63.40
2022-12-27T19:14:47.784Z,61.79
2022-12-27T19:17:19.774Z,62.59
2022-12-27T19:19:50.095Z,62.07
2022-12-27T19:22:36.031Z,62.33
2022-12-27T19:25:12.265Z,62.72
2022-12-27T19:27:40.822Z,62.63
2022-12-27T19:30:32.051Z,61.81
2022-12-27T19:33:03.163Z,62.86
2022-12-27T19:35:32.505Z,61.82
2022-12-27T19:38:02.608Z,62.46
2022-12-27T19:40:32.832Z,62.50
2022-12-27T19:43:01.128Z,61.92
2022-12-27T19:45:30.176Z,61.85
2022-12-27T19:47:58.353Z,61.36
2022-12-27T19:50:26.736Z,61.70
2022-12-27T19:52:55.328Z,61.74
2022-12-27T19:55:26.977Z,61.37
2022-12-27T19:57:56.872Z,62.68
2022-12-27T20:00:25.322Z,62.21
2022-12-27T20:02:53.688Z,62.43
2022-12-27T20:06:11.632Z,61.82
2022-12-27T20:08:23.873Z,62.35
2022-12-27T20:10:52.273Z,62.13
2022-12-27T20:13:22.592Z,62.06
2022-12-27T20:15:51.958Z,62.74
2022-12-27T20:18:20.357Z,62.47
2022-12-27T20:20:49.345Z,62.51
2022-12-27T20:23:18.091Z,62.70
2022-12-27T20:25:49.046Z,62.39
2022-12-27T20:28:18.884Z,62.37
2022-12-27T20:30:48.698Z,62.03
2022-12-27T20:33:17.301Z,61.81
2022-12-27T20:35:45.918Z,62.57
2022-12-27T20:38:14.085Z,63.08
2022-12-27T20:40:42.731Z,62.88
2022-12-27T20:43:11.707Z,63.30
2022-12-27T20:45:40.406Z,62.12
2022-12-27T20:48:10.186Z,62.45
2022-12-27T20:50:38.384Z,62.67
2022-12-27T20:53:07.699Z,63.42
2022-12-27T20:55:36.137Z,62.62
2022-12-27T20:58:04.527Z,63.46
2022-12-27T21:00:32.817Z,63.38
2022-12-27T21:03:01.349Z,63.57
2022-12-27T21:05:31.574Z,63.47
2022-12-27T21:08:00.287Z,63.36
2022-12-27T21:10:28.914Z,63.50
2022-12-27T21:12:57.214Z,63.69
2022-12-27T21:15:25.511Z,63.78
2022-12-27T21:17:54.030Z,63.30
2022-12-27T21:20:22.350Z,64.46
2022-12-27T21:22:52.401Z,63.83
2022-12-27T21:25:20.486Z,63.92
2022-12-27T21:27:49.197Z,63.19
2022-12-27T21:30:17.915Z,64.24
2022-12-27T21:32:46.902Z,64.87
2022-12-27T21:35:15.159Z,64.27
2022-12-27T21:37:43.578Z,63.53
2022-12-27T21:40:14.415Z,64.13
2022-12-27T21:42:42.895Z,63.94
2022-12-27T21:45:12.407Z,63.72
2022-12-27T21:47:40.717Z,64.05
2022-12-27T21:50:09.893Z,63.58
2022-12-27T21:52:38.486Z,63.47
2022-12-27T21:55:07.454Z,63.26
2022-12-27T21:57:37.101Z,62.64
2022-12-27T22:00:06.406Z,62.79
2022-12-27T22:02:35.086Z,62.45
2022-12-27T22:05:03.861Z,62.45
2022-12-27T22:07:32.730Z,62.93
2022-12-27T22:10:01.098Z,63.16
2022-12-27T22:12:29.512Z,63.31
2022-12-27T22:14:59.496Z,63.89
2022-12-27T22:17:27.890Z,63.02
2022-12-27T22:19:56.473Z,63.58
2022-12-27T22:22:24.848Z,62.55
2022-12-27T22:24:52.974Z,63.53
2022-12-27T22:27:21.173Z,63.98
2022-12-27T22:29:49.432Z,63.75
2022-12-27T22:32:19.260Z,62.75
2022-12-27T22:34:47.349Z,62.63
2022-12-27T22:37:15.767Z,63.69
2022-12-27T22:39:44.266Z,64.39
2022-12-27T22:42:13.296Z,64.16
2022-12-27T22:44:43.830Z,63.11
2022-12-27T22:47:28.308Z,63.84
2022-12-27T22:49:58.520Z,63.82
2022-12-27T22:52:27.193Z,63.93
2022-12-27T22:55:06.079Z,64.70
2022-12-27T22:57:35.939Z,64.44
2022-12-27T23:00:07.247Z,62.87
2022-12-27T23:02:35.871Z,63.89
2022-12-27T23:05:06.767Z,63.29
2022-12-27T23:08:03.530Z,63.22
2022-12-27T23:10:24.237Z,63.31
2022-12-27T23:12:52.311Z,63.94
2022-12-27T23:15:20.681Z,64.24
2022-12-27T23:17:49.034Z,64.31
2022-12-27T23:20:19.073Z,63.76
2022-12-27T23:22:47.487Z,63.33
2022-12-27T23:25:16.005Z,64.00
2022-12-27T23:27:44.576Z,63.17
2022-12-27T23:30:14.333Z,63.58
2022-12-27T23:32:42.845Z,62.35
2022-12-27T23:35:11.304Z,61.99
2022-12-27T23:37:40.801Z,60.98
2022-12-27T23:40:10.408Z,61.21
2022-12-27T23:42:38.552Z,61.02
2022-12-27T23:45:08.247Z,60.76
2022-12-27T23:47:36.458Z,60.62
2022-12-27T23:50:05.624Z,60.56
2022-12-27T23:52:33.817Z,59.42
2022-12-27T23:55:03.543Z,59.22
2022-12-27T23:57:32.126Z,59.41
